createdAt,value
2022-11-20T00:00:57.465Z,98051.78
2022-11-20T00:04:01.797Z,98053.41
2022-11-20T00:07:04.556Z,98055.81
2022-11-20T00:10:07.707Z,98058.44
2022-11-20T00:13:10.419Z,98053.72
2022-11-20T00:16:14.640Z,98066.41
2022-11-20T00:19:18.910Z,98057.59
2022-11-20T00:22:21.717Z,98061.72
2022-11-20T00:25:24.315Z,98066.81
2022-11-20T00:28:26.872Z,98061.84
2022-11-20T00:31:30.155Z,98062.94
2022-11-20T00:34:34.114Z,98057.91
2022-11-20T00:37:36.695Z,98050.63
2022-11-20T00:40:39.361Z,98047.31
2022-11-20T00:43:42.202Z,98052.09
2022-11-20T00:46:44.783Z,98052.19
2022-11-20T00:49:48.872Z,98056.66
2022-11-20T00:52:51.395Z,98058.34
2022-11-20T00:55:57.916Z,98056.06
2022-11-20T00:59:02.866Z,98066.72
2022-11-20T01:02:05.433Z,98054.28
2022-11-20T01:05:09.807Z,98053.41
2022-11-20T01:08:12.733Z,98059.00
2022-11-20T01:11:16.895Z,98055.00
2022-11-20T01:14:21.237Z,98055.19
2022-11-20T01:17:24.018Z,98067.97
2022-11-20T01:20:27.957Z,98065.06
2022-11-20T01:23:33.280Z,98063.19
2022-11-20T01:26:37.982Z,98068.50
2022-11-20T01:29:40.571Z,98072.16
2022-11-20T01:32:43.182Z,98074.06
2022-11-20T01:35:47.158Z,98082.22
2022-11-20T01:38:49.832Z,98084.03
2022-11-20T01:42:11.033Z,98082.06
2022-11-20T01:45:51.283Z,98079.41
2022-11-20T01:48:56.677Z,98073.63
2022-11-20T01:52:03.731Z,98081.03
2022-11-20T01:55:10.097Z,98074.44
2022-11-20T01:58:13.937Z,98068.16
2022-11-20T02:01:16.907Z,98072.09
2022-11-20T02:04:20.170Z,98077.03
2022-11-20T02:07:24.760Z,98073.63
2022-11-20T02:10:28.061Z,98075.66
2022-11-20T02:13:45.622Z,98077.50
2022-11-20T02:16:49.558Z,98075.19
2022-11-20T02:19:52.470Z,98081.13
2022-11-20T02:22:59.879Z,98078.84
2022-11-20T02:26:05.639Z,98076.25
2022-11-20T02:29:08.265Z,98087.28
2022-11-20T02:32:20.466Z,98080.38
2022-11-20T02:35:44.265Z,98080.09
2022-11-20T02:38:47.050Z,98076.59
2022-11-20T02:41:51.085Z,98079.38
2022-11-20T02:44:53.678Z,98076.69
2022-11-20T02:47:56.279Z,98075.66
2022-11-20T02:50:58.905Z,98072.19
2022-11-20T02:54:01.473Z,98071.94
2022-11-20T02:57:05.459Z,98070.84
2022-11-20T03:00:09.520Z,98073.59
2022-11-20T03:03:12.252Z,98083.34
2022-11-20T03:06:14.844Z,98080.03
2022-11-20T03:09:17.426Z,98075.25
2022-11-20T03:12:21.377Z,98075.91
2022-11-20T03:15:24.040Z,98074.47
2022-11-20T03:18:26.663Z,98077.69
2022-11-20T03:21:29.320Z,98070.97
2022-11-20T03:24:31.903Z,98063.13
2022-11-20T03:27:36.719Z,98070.75
2022-11-20T03:30:39.294Z,98065.81
2022-11-20T03:33:42.720Z,98063.00
2022-11-20T03:36:45.365Z,98062.56
2022-11-20T03:39:47.919Z,98053.22
2022-11-20T03:42:51.932Z,98059.81
2022-11-20T03:45:54.499Z,98051.00
2022-11-20T03:48:57.467Z,98061.00
2022-11-20T03:52:00.031Z,98058.16
2022-11-20T03:55:02.593Z,98052.56
2022-11-20T03:58:06.462Z,98052.31
2022-11-20T04:01:09.846Z,98053.84
2022-11-20T04:04:12.523Z,98049.25
2022-11-20T04:07:15.100Z,98055.59
2022-11-20T04:10:17.969Z,98050.31
2022-11-20T04:13:21.864Z,98052.22
2022-11-20T04:16:25.944Z,98048.75
2022-11-20T04:19:28.665Z,98044.22
2022-11-20T04:22:31.309Z,98042.81
2022-11-20T04:25:34.069Z,98049.91
2022-11-20T04:28:38.394Z,98046.56
2022-11-20T04:31:41.050Z,98043.06
2022-11-20T04:34:43.651Z,98044.34
2022-11-20T04:37:46.208Z,98039.53
2022-11-20T04:40:48.773Z,98040.13
2022-11-20T04:43:54.195Z,98050.19
2022-11-20T04:46:56.708Z,98046.44
2022-11-20T04:49:59.382Z,98040.28
2022-11-20T04:53:01.944Z,98048.78
2022-11-20T04:56:06.393Z,98045.78
2022-11-20T04:59:10.332Z,98036.41
2022-11-20T05:02:12.994Z,98040.13
2022-11-20T05:05:15.801Z,98040.38
2022-11-20T05:08:18.377Z,98042.59
2022-11-20T05:11:22.186Z,98045.97
2022-11-20T05:14:26.258Z,98035.75
2022-11-20T05:17:28.947Z,98041.66
2022-11-20T05:20:31.585Z,98046.50
2022-11-20T05:23:34.625Z,98027.63
2022-11-20T05:26:37.183Z,98039.00
2022-11-20T05:29:41.271Z,98036.16
2022-11-20T05:32:43.855Z,98046.50
2022-11-20T05:35:46.851Z,98045.38
2022-11-20T05:38:51.218Z,98043.78
2022-11-20T05:42:14.147Z,98041.84
2022-11-20T05:45:18.471Z,98045.88
2022-11-20T05:48:21.221Z,98039.16
2022-11-20T05:51:23.813Z,98038.00
2022-11-20T05:54:26.434Z,98034.69
2022-11-20T05:57:29.045Z,98042.31
2022-11-20T06:00:33.012Z,98041.38
2022-11-20T06:03:35.636Z,98042.53
2022-11-20T06:06:38.198Z,98041.25
2022-11-20T06:09:40.781Z,98042.00
2022-11-20T06:12:43.331Z,98041.72
2022-11-20T06:15:51.794Z,98048.31
2022-11-20T06:18:54.477Z,98044.50
2022-11-20T06:21:57.021Z,98045.31
2022-11-20T06:24:59.627Z,98039.72
2022-11-20T06:28:02.319Z,98040.03
2022-11-20T06:31:07.216Z,98039.22
2022-11-20T06:34:10.456Z,98029.16
2022-11-20T06:37:13.066Z,98022.31
2022-11-20T06:40:15.655Z,98019.84
2022-11-20T06:43:18.410Z,98023.03
2022-11-20T06:46:22.565Z,98029.97
2022-11-20T06:49:26.151Z,98032.72
2022-11-20T06:52:28.770Z,98023.94
2022-11-20T06:55:31.603Z,98039.31
2022-11-20T06:58:35.285Z,98034.47
2022-11-20T07:01:39.227Z,98040.03
2022-11-20T07:04:41.924Z,98045.13
2022-11-20T07:07:44.545Z,98049.78
2022-11-20T07:10:47.153Z,98048.81
2022-11-20T07:13:49.719Z,98053.94
2022-11-20T07:16:53.663Z,98051.16
2022-11-20T07:19:56.300Z,98050.69
2022-11-20T07:22:59.584Z,98053.75
2022-11-20T07:26:05.228Z,98049.09
2022-11-20T07:29:07.931Z,98043.66
2022-11-20T07:32:11.807Z,98051.34
2022-11-20T07:35:14.604Z,98048.97
2022-11-20T07:38:17.356Z,98056.84
2022-11-20T07:41:19.951Z,98058.44
2022-11-20T07:44:22.551Z,98059.69
2022-11-20T07:47:27.195Z,98058.00
2022-11-20T07:50:29.864Z,98050.81
2022-11-20T07:53:32.424Z,98060.44
2022-11-20T07:56:35.369Z,98063.47
2022-11-20T07:59:37.972Z,98062.19
2022-11-20T08:02:42.339Z,98064.13
2022-11-20T08:05:44.975Z,98066.19
2022-11-20T08:08:47.575Z,98070.84
2022-11-20T08:12:07.865Z,98081.53
2022-11-20T08:15:13.381Z,98078.03
2022-11-20T08:18:33.863Z,98078.34
2022-11-20T08:21:38.497Z,98079.16
2022-11-20T08:24:41.347Z,98081.06
2022-11-20T08:27:43.946Z,98084.59
2022-11-20T08:30:46.916Z,98081.84
2022-11-20T08:33:51.082Z,98082.66
2022-11-20T08:36:53.752Z,98082.50
2022-11-20T08:39:58.103Z,98081.03
2022-11-20T08:43:00.969Z,98081.97
2022-11-20T08:46:03.707Z,98084.47
2022-11-20T08:49:08.557Z,98082.19
2022-11-20T08:52:11.274Z,98091.44
2022-11-20T08:55:14.224Z,98081.19
2022-11-20T08:58:16.807Z,98086.72
2022-11-20T09:01:19.750Z,98088.59
2022-11-20T09:04:23.862Z,98092.19
2022-11-20T09:07:26.673Z,98097.50
2022-11-20T09:10:29.842Z,98094.84
2022-11-20T09:13:33.407Z,98095.63
2022-11-20T09:16:36.021Z,98102.66
2022-11-20T09:19:40.131Z,98103.66
2022-11-20T09:22:42.908Z,98104.19
2022-11-20T09:25:45.888Z,98103.66
2022-11-20T09:28:48.534Z,98109.34
2022-11-20T09:31:51.112Z,98108.97
2022-11-20T09:34:55.009Z,98116.28
2022-11-20T09:37:57.852Z,98117.81
2022-11-20T09:41:04.697Z,98126.13
2022-11-20T09:44:18.715Z,98123.03
2022-11-20T09:47:28.977Z,98134.66
2022-11-20T09:50:35.182Z,98125.75
2022-11-20T09:53:48.427Z,98127.09
2022-11-20T09:56:53.821Z,98123.28
2022-11-20T09:59:58.603Z,98132.19
2022-11-20T10:03:03.890Z,98115.84
2022-11-20T10:06:12.475Z,98120.66
2022-11-20T10:09:23.236Z,98114.97
2022-11-20T10:12:30.154Z,98119.34
2022-11-20T10:15:36.485Z,98126.59
2022-11-20T10:18:51.608Z,98121.16
2022-11-20T10:22:01.824Z,98121.25
2022-11-20T10:25:08.757Z,98131.31
2022-11-20T10:28:30.821Z,98136.91
2022-11-20T10:31:35.931Z,98151.03
2022-11-20T10:34:46.932Z,98151.56
2022-11-20T10:37:55.488Z,98151.53
2022-11-20T10:41:20.782Z,98159.34
2022-11-20T10:44:44.579Z,98145.97
2022-11-20T10:47:47.288Z,98156.63
2022-11-20T10:51:05.961Z,98152.13
2022-11-20T10:54:20.911Z,98146.31
2022-11-20T10:57:34.174Z,98150.28
2022-11-20T11:00:36.926Z,98141.06
2022-11-20T11:03:39.663Z,98132.31
2022-11-20T11:06:46.028Z,98127.94
2022-11-20T11:09:51.663Z,98121.75
2022-11-20T11:12:54.283Z,98130.69
2022-11-20T11:15:57.671Z,98130.03
2022-11-20T11:19:06.583Z,98132.66
2022-11-20T11:22:13.408Z,98118.22
2022-11-20T11:25:29.999Z,98101.25
2022-11-20T11:28:33.056Z,98091.75
2022-11-20T11:31:36.675Z,98087.59
2022-11-20T11:34:39.455Z,98089.06
2022-11-20T11:37:42.075Z,98077.41
2022-11-20T11:40:46.168Z,98082.66
2022-11-20T11:44:12.135Z,98077.53
2022-11-20T11:47:23.249Z,98067.47
2022-11-20T11:50:26.897Z,98066.19
2022-11-20T11:53:29.383Z,98058.44
2022-11-20T11:56:35.342Z,98051.06
2022-11-20T11:59:46.585Z,98051.50
2022-11-20T12:02:58.287Z,98051.84
2022-11-20T12:06:04.063Z,98056.41
2022-11-20T12:09:10.427Z,98047.63
2022-11-20T12:12:19.523Z,98051.53
2022-11-20T12:15:29.007Z,98054.72
2022-11-20T12:18:31.882Z,98043.19
2022-11-20T12:21:40.508Z,98042.28
2022-11-20T12:24:49.205Z,98046.47
2022-11-20T12:28:03.971Z,98037.56
2022-11-20T12:31:23.457Z,98032.19
2022-11-20T12:34:54.937Z,98037.47
2022-11-20T12:38:08.582Z,98032.41
2022-11-20T12:41:36.435Z,98026.25
2022-11-20T12:45:12.239Z,98033.75
2022-11-20T12:48:30.986Z,98028.25
2022-11-20T12:51:57.269Z,98026.91
2022-11-20T12:55:26.047Z,98038.41
2022-11-20T12:58:35.630Z,98037.91
2022-11-20T13:01:43.730Z,98038.44
2022-11-20T13:05:08.249Z,98044.78
2022-11-20T13:08:17.299Z,98047.00
2022-11-20T13:11:25.336Z,98023.13
2022-11-20T13:14:34.260Z,98044.63
2022-11-20T13:17:42.515Z,98038.31
2022-11-20T13:20:46.178Z,98036.44
2022-11-20T13:23:48.770Z,98033.56
2022-11-20T13:27:02.461Z,98031.56
2022-11-20T13:30:18.108Z,98024.59
2022-11-20T13:33:29.617Z,98016.56
2022-11-20T13:36:33.321Z,98012.63
2022-11-20T13:39:38.143Z,98009.13
2022-11-20T13:42:42.576Z,98008.75
2022-11-20T13:45:56.758Z,98001.66
2022-11-20T13:49:02.497Z,98008.56
2022-11-20T13:52:22.997Z,98002.13
2022-11-20T13:55:31.093Z,98006.47
2022-11-20T13:58:45.734Z,98006.16
2022-11-20T14:01:48.606Z,98015.16
2022-11-20T14:04:54.641Z,98028.53
2022-11-20T14:07:58.220Z,98005.81
2022-11-20T14:11:08.822Z,97998.72
2022-11-20T14:14:17.968Z,98003.94
2022-11-20T14:17:22.337Z,97993.53
2022-11-20T14:20:29.609Z,98006.47
2022-11-20T14:23:32.176Z,97997.56
2022-11-20T14:26:35.156Z,97994.78
2022-11-20T14:29:39.619Z,98000.63
2022-11-20T14:32:43.500Z,97997.97
2022-11-20T14:35:49.366Z,98008.44
2022-11-20T14:38:52.903Z,98000.50
2022-11-20T14:41:56.150Z,97991.66
2022-11-20T14:45:00.109Z,97990.34
2022-11-20T14:48:05.657Z,97977.91
2022-11-20T14:51:11.412Z,97978.56
2022-11-20T14:54:16.962Z,97972.38
2022-11-20T14:57:26.305Z,97963.72
2022-11-20T15:00:29.536Z,97965.63
2022-11-20T15:03:36.519Z,97950.59
2022-11-20T15:06:51.924Z,97953.31
2022-11-20T15:10:05.614Z,97956.28
2022-11-20T15:13:14.094Z,97950.47
2022-11-20T15:16:20.040Z,97947.69
2022-11-20T15:19:24.102Z,97948.22
2022-11-20T15:22:28.080Z,97945.00
2022-11-20T15:25:31.395Z,97936.88
2022-11-20T15:28:35.918Z,97938.66
2022-11-20T15:31:38.820Z,97937.25
2022-11-20T15:34:41.687Z,97940.41
2022-11-20T15:37:45.940Z,97941.53
2022-11-20T15:40:48.602Z,97946.50
2022-11-20T15:43:51.194Z,97942.66
2022-11-20T15:46:53.857Z,97929.19
2022-11-20T15:49:57.097Z,97926.31
2022-11-20T15:53:01.249Z,97923.75
2022-11-20T15:56:04.160Z,97926.97
2022-11-20T15:59:06.783Z,97916.41
2022-11-20T16:02:17.554Z,97923.94
2022-11-20T16:05:24.035Z,97922.16
2022-11-20T16:08:28.108Z,97911.44
2022-11-20T16:11:30.738Z,97917.66
2022-11-20T16:14:51.168Z,97908.38
2022-11-20T16:17:53.769Z,97913.50
2022-11-20T16:20:57.121Z,97912.41
2022-11-20T16:24:01.854Z,97919.75
2022-11-20T16:27:04.605Z,97920.56
2022-11-20T16:30:08.509Z,97911.47
2022-11-20T16:33:12.759Z,97908.13
2022-11-20T16:36:16.755Z,97902.06
2022-11-20T16:39:23.940Z,97903.16
2022-11-20T16:42:26.829Z,97900.59
2022-11-20T16:45:33.715Z,97894.34
2022-11-20T16:48:36.628Z,97895.31
2022-11-20T16:51:39.275Z,97902.69
2022-11-20T16:54:43.274Z,97890.38
2022-11-20T16:57:45.895Z,97892.63
2022-11-20T17:00:51.614Z,97890.03
2022-11-20T17:03:58.896Z,97883.34
2022-11-20T17:07:07.621Z,97891.34
2022-11-20T17:10:12.103Z,97876.75
2022-11-20T17:13:14.744Z,97869.09
2022-11-20T17:16:20.037Z,97875.66
2022-11-20T17:19:22.704Z,97875.97
2022-11-20T17:22:25.367Z,97875.34
2022-11-20T17:25:29.325Z,97863.16
2022-11-20T17:28:32.559Z,97870.69
2022-11-20T17:31:35.887Z,97869.25
2022-11-20T17:34:38.427Z,97863.50
2022-11-20T17:37:41.025Z,97862.06
2022-11-20T17:40:46.230Z,97856.97
2022-11-20T17:43:49.519Z,97855.97
2022-11-20T17:46:52.088Z,97850.19
2022-11-20T17:49:55.423Z,97842.84
2022-11-20T17:52:58.547Z,97846.06
2022-11-20T17:56:20.259Z,97844.59
2022-11-20T17:59:23.104Z,97836.09
2022-11-20T18:02:25.916Z,97838.31
2022-11-20T18:05:28.596Z,97833.03
2022-11-20T18:08:31.432Z,97824.69
2022-11-20T18:11:38.781Z,97824.69
2022-11-20T18:14:43.509Z,97828.03
2022-11-20T18:17:46.230Z,97825.84
2022-11-20T18:20:54.228Z,97811.22
2022-11-20T18:23:57.225Z,97821.81
2022-11-20T18:27:01.709Z,97817.34
2022-11-20T18:30:04.837Z,97815.41
2022-11-20T18:33:07.924Z,97803.28
2022-11-20T18:36:11.665Z,97794.31
2022-11-20T18:39:14.505Z,97788.56
2022-11-20T18:42:36.649Z,97793.03
2022-11-20T18:45:39.255Z,97786.63
2022-11-20T18:48:41.973Z,97789.41
2022-11-20T18:51:45.006Z,97786.09
2022-11-20T18:54:47.629Z,97785.03
2022-11-20T18:57:51.576Z,97789.06
2022-11-20T19:00:54.254Z,97800.09
2022-11-20T19:03:57.183Z,97785.66
2022-11-20T19:06:59.894Z,97773.19
2022-11-20T19:10:04.175Z,97775.44
2022-11-20T19:13:08.506Z,97776.53
2022-11-20T19:16:17.853Z,97786.91
2022-11-20T19:19:20.530Z,97782.34
2022-11-20T19:22:23.148Z,97775.00
2022-11-20T19:25:25.878Z,97781.41
2022-11-20T19:28:31.541Z,97778.84
2022-11-20T19:31:34.636Z,97767.66
2022-11-20T19:34:37.262Z,97762.09
2022-11-20T19:37:39.828Z,97753.50
2022-11-20T19:40:42.446Z,97754.69
2022-11-20T19:43:49.604Z,97758.84
2022-11-20T19:46:52.210Z,97759.47
2022-11-20T19:49:54.891Z,97759.19
2022-11-20T19:52:59.058Z,97743.84
2022-11-20T19:56:02.052Z,97754.84
2022-11-20T19:59:06.140Z,97753.41
2022-11-20T20:02:11.437Z,97741.59
2022-11-20T20:05:14.115Z,97744.31
2022-11-20T20:08:17.250Z,97739.22
2022-11-20T20:11:21.789Z,97745.09
2022-11-20T20:14:26.131Z,97739.22
2022-11-20T20:17:28.707Z,97753.56
2022-11-20T20:20:31.785Z,97739.84
2022-11-20T20:23:35.480Z,97742.06
2022-11-20T20:26:38.544Z,97750.38
2022-11-20T20:29:42.510Z,97748.25
2022-11-20T20:32:45.205Z,97746.06
2022-11-20T20:35:47.837Z,97746.88
2022-11-20T20:38:53.541Z,97744.97
2022-11-20T20:41:56.159Z,97748.63
2022-11-20T20:45:10.971Z,97748.53
2022-11-20T20:48:13.643Z,97745.50
2022-11-20T20:51:16.312Z,97754.16
2022-11-20T20:54:18.970Z,97745.53
2022-11-20T20:57:22.738Z,97742.91
2022-11-20T21:00:26.832Z,97753.59
2022-11-20T21:03:32.892Z,97752.09
2022-11-20T21:06:35.717Z,97760.59
2022-11-20T21:09:38.538Z,97746.56
2022-11-20T21:12:41.095Z,97760.66
2022-11-20T21:15:47.567Z,97752.03
2022-11-20T21:18:50.393Z,97759.09
2022-11-20T21:22:03.136Z,97768.19
2022-11-20T21:25:06.486Z,97765.97
2022-11-20T21:28:12.025Z,97779.56
2022-11-20T21:31:21.883Z,97773.09
2022-11-20T21:34:25.447Z,97768.25
2022-11-20T21:37:28.378Z,97756.31
2022-11-20T21:40:31.044Z,97741.72
2022-11-20T21:43:33.735Z,97756.53
2022-11-20T21:46:40.000Z,97753.81
2022-11-20T21:49:42.680Z,97762.38
2022-11-20T21:52:45.581Z,97765.13
2022-11-20T21:55:54.255Z,97765.59
2022-11-20T21:58:57.011Z,97764.81
2022-11-20T22:02:01.139Z,97769.78
2022-11-20T22:05:03.683Z,97767.28
2022-11-20T22:08:07.077Z,97777.97
2022-11-20T22:11:12.265Z,97777.97
2022-11-20T22:14:24.747Z,97777.72
2022-11-20T22:17:42.977Z,97779.16
2022-11-20T22:20:45.627Z,97786.66
2022-11-20T22:23:48.343Z,97778.06
2022-11-20T22:26:51.040Z,97770.91
2022-11-20T22:29:53.617Z,97772.50
2022-11-20T22:32:57.592Z,97779.84
2022-11-20T22:36:04.663Z,97787.41
2022-11-20T22:39:07.714Z,97785.16
2022-11-20T22:42:10.553Z,97774.63
2022-11-20T22:45:14.128Z,97770.94
2022-11-20T22:48:19.168Z,97785.59
2022-11-20T22:51:23.141Z,97780.31
2022-11-20T22:54:25.956Z,97776.88
2022-11-20T22:57:28.723Z,97782.59
2022-11-20T23:00:31.376Z,97783.31
2022-11-20T23:03:35.364Z,97779.47
2022-11-20T23:06:38.299Z,97799.66
2022-11-20T23:09:40.848Z,97781.69
2022-11-20T23:12:43.353Z,97779.69
2022-11-20T23:15:46.016Z,97780.97
2022-11-20T23:18:49.978Z,97779.84
2022-11-20T23:21:52.570Z,97776.66
2022-11-20T23:24:55.152Z,97782.28
2022-11-20T23:27:57.826Z,97775.56
2022-11-20T23:31:00.979Z,97780.22
2022-11-20T23:34:05.065Z,97783.84
2022-11-20T23:37:09.697Z,97775.19
2022-11-20T23:40:12.936Z,97787.44
2022-11-20T23:43:18.524Z,97791.66
2022-11-20T23:46:21.161Z,97789.28
2022-11-20T23:49:25.116Z,97783.66
2022-11-20T23:52:27.692Z,97791.19
2022-11-20T23:55:30.526Z,97795.66
2022-11-20T23:58:34.708Z,97788.81
